sensor_id;sensor_type;location;lat;lon;timestamp;P1;durP1;ratioP1;P2;durP2;ratioP2
23155;SDS011;11746;50.876;4.246;2023-05-10T00:00:28;12.75;;;6.78;;
23155;SDS011;11746;50.876;4.246;2023-05-10T00:02:54;11.38;;;6.00;;
23155;SDS011;11746;50.876;4.246;2023-05-10T00:05:19;12.02;;;6.20;;
23155;SDS011;11746;50.876;4.246;2023-05-10T00:07:45;10.00;;;6.13;;
23155;SDS011;11746;50.876;4.246;2023-05-10T00:10:11;14.70;;;6.72;;
23155;SDS011;11746;50.876;4.246;2023-05-10T00:12:38;10.40;;;6.70;;
23155;SDS011;11746;50.876;4.246;2023-05-10T00:15:04;11.63;;;6.65;;
23155;SDS011;11746;50.876;4.246;2023-05-10T00:17:30;14.40;;;6.72;;
23155;SDS011;11746;50.876;4.246;2023-05-10T00:19:56;14.15;;;6.78;;
23155;SDS011;11746;50.876;4.246;2023-05-10T00:22:22;13.50;;;7.20;;
23155;SDS011;11746;50.876;4.246;2023-05-10T00:24:48;10.48;;;6.82;;
23155;SDS011;11746;50.876;4.246;2023-05-10T00:27:14;15.88;;;7.63;;
23155;SDS011;11746;50.876;4.246;2023-05-10T00:29:40;10.85;;;7.00;;
23155;SDS011;11746;50.876;4.246;2023-05-10T00:32:06;11.73;;;6.82;;
23155;SDS011;11746;50.876;4.246;2023-05-10T00:34:32;11.80;;;6.85;;
23155;SDS011;11746;50.876;4.246;2023-05-10T00:36:57;12.30;;;7.32;;
23155;SDS011;11746;50.876;4.246;2023-05-10T00:39:23;14.50;;;7.28;;
23155;SDS011;11746;50.876;4.246;2023-05-10T00:41:51;14.13;;;7.35;;
23155;SDS011;11746;50.876;4.246;2023-05-10T00:44:17;12.23;;;7.60;;
23155;SDS011;11746;50.876;4.246;2023-05-10T00:46:43;13.50;;;7.93;;
23155;SDS011;11746;50.876;4.246;2023-05-10T00:49:10;13.35;;;7.93;;
23155;SDS011;11746;50.876;4.246;2023-05-10T00:51:36;14.50;;;7.72;;
23155;SDS011;11746;50.876;4.246;2023-05-10T00:54:02;15.50;;;7.68;;
23155;SDS011;11746;50.876;4.246;2023-05-10T00:56:28;11.32;;;7.65;;
23155;SDS011;11746;50.876;4.246;2023-05-10T00:58:55;12.73;;;8.10;;
23155;SDS011;11746;50.876;4.246;2023-05-10T01:01:21;13.75;;;7.95;;
23155;SDS011;11746;50.876;4.246;2023-05-10T01:03:48;14.77;;;7.60;;
23155;SDS011;11746;50.876;4.246;2023-05-10T01:06:13;17.08;;;8.10;;
23155;SDS011;11746;50.876;4.246;2023-05-10T01:08:39;12.38;;;7.60;;
23155;SDS011;11746;50.876;4.246;2023-05-10T01:11:06;13.07;;;7.85;;
23155;SDS011;11746;50.876;4.246;2023-05-10T01:13:39;11.93;;;8.18;;
23155;SDS011;11746;50.876;4.246;2023-05-10T01:16:08;14.50;;;8.10;;
23155;SDS011;11746;50.876;4.246;2023-05-10T01:18:43;13.85;;;7.75;;
23155;SDS011;11746;50.876;4.246;2023-05-10T01:32:16;15.95;;;8.48;;
23155;SDS011;11746;50.876;4.246;2023-05-10T01:37:21;15.35;;;8.63;;
23155;SDS011;11746;50.876;4.246;2023-05-10T01:40:08;16.65;;;9.52;;
23155;SDS011;11746;50.876;4.246;2023-05-10T01:42:47;16.42;;;8.75;;
23155;SDS011;11746;50.876;4.246;2023-05-10T01:45:20;15.85;;;9.77;;
23155;SDS011;11746;50.876;4.246;2023-05-10T01:48:10;15.88;;;9.10;;
23155;SDS011;11746;50.876;4.246;2023-05-10T01:50:39;14.55;;;9.63;;
23155;SDS011;11746;50.876;4.246;2023-05-10T01:53:08;13.45;;;9.13;;
23155;SDS011;11746;50.876;4.246;2023-05-10T01:55:41;17.35;;;10.02;;
23155;SDS011;11746;50.876;4.246;2023-05-10T02:01:11;15.88;;;9.10;;
23155;SDS011;11746;50.876;4.246;2023-05-10T02:03:38;14.75;;;9.57;;
23155;SDS011;11746;50.876;4.246;2023-05-10T02:06:07;17.67;;;9.68;;
23155;SDS011;11746;50.876;4.246;2023-05-10T02:08:35;18.25;;;10.15;;
23155;SDS011;11746;50.876;4.246;2023-05-10T02:11:02;15.90;;;9.77;;
23155;SDS011;11746;50.876;4.246;2023-05-10T02:13:30;18.48;;;10.48;;
23155;SDS011;11746;50.876;4.246;2023-05-10T02:15:58;21.15;;;11.38;;
23155;SDS011;11746;50.876;4.246;2023-05-10T02:18:25;20.80;;;10.68;;
23155;SDS011;11746;50.876;4.246;2023-05-10T02:20:52;19.85;;;12.00;;
23155;SDS011;11746;50.876;4.246;2023-05-10T02:23:20;20.10;;;11.02;;
23155;SDS011;11746;50.876;4.246;2023-05-10T02:25:47;19.60;;;11.68;;
23155;SDS011;11746;50.876;4.246;2023-05-10T02:28:14;21.10;;;11.43;;
23155;SDS011;11746;50.876;4.246;2023-05-10T02:30:42;17.75;;;10.15;;
23155;SDS011;11746;50.876;4.246;2023-05-10T02:33:08;21.00;;;11.98;;
23155;SDS011;11746;50.876;4.246;2023-05-10T02:35:36;19.27;;;11.23;;
23155;SDS011;11746;50.876;4.246;2023-05-10T02:38:03;19.90;;;10.98;;
23155;SDS011;11746;50.876;4.246;2023-05-10T02:40:30;20.23;;;10.98;;
23155;SDS011;11746;50.876;4.246;2023-05-10T02:42:57;21.45;;;12.55;;
23155;SDS011;11746;50.876;4.246;2023-05-10T02:45:27;18.25;;;11.38;;
23155;SDS011;11746;50.876;4.246;2023-05-10T02:47:56;22.90;;;12.00;;
23155;SDS011;11746;50.876;4.246;2023-05-10T02:50:22;18.00;;;10.90;;
23155;SDS011;11746;50.876;4.246;2023-05-10T02:52:54;20.90;;;11.85;;
23155;SDS011;11746;50.876;4.246;2023-05-10T02:55:26;19.88;;;11.95;;
23155;SDS011;11746;50.876;4.246;2023-05-10T02:58:01;19.50;;;11.35;;
23155;SDS011;11746;50.876;4.246;2023-05-10T03:00:28;20.70;;;12.30;;
23155;SDS011;11746;50.876;4.246;2023-05-10T03:02:54;18.80;;;11.43;;
23155;SDS011;11746;50.876;4.246;2023-05-10T03:05:20;22.08;;;12.27;;
23155;SDS011;11746;50.876;4.246;2023-05-10T03:07:46;17.77;;;11.73;;
23155;SDS011;11746;50.876;4.246;2023-05-10T03:10:13;21.83;;;11.93;;
23155;SDS011;11746;50.876;4.246;2023-05-10T03:12:41;18.45;;;12.20;;
23155;SDS011;11746;50.876;4.246;2023-05-10T03:18:15;19.88;;;12.70;;
23155;SDS011;11746;50.876;4.246;2023-05-10T03:20:48;24.17;;;13.02;;
23155;SDS011;11746;50.876;4.246;2023-05-10T03:26:23;22.00;;;13.27;;
23155;SDS011;11746;50.876;4.246;2023-05-10T03:28:52;22.20;;;14.48;;
23155;SDS011;11746;50.876;4.246;2023-05-10T03:31:18;20.80;;;13.63;;
23155;SDS011;11746;50.876;4.246;2023-05-10T03:33:48;24.00;;;15.18;;
23155;SDS011;11746;50.876;4.246;2023-05-10T03:36:15;22.90;;;14.82;;
23155;SDS011;11746;50.876;4.246;2023-05-10T03:38:41;24.17;;;15.05;;
23155;SDS011;11746;50.876;4.246;2023-05-10T03:41:07;24.70;;;14.77;;
23155;SDS011;11746;50.876;4.246;2023-05-10T03:43:35;23.23;;;14.73;;
23155;SDS011;11746;50.876;4.246;2023-05-10T03:46:04;26.13;;;14.80;;
23155;SDS011;11746;50.876;4.246;2023-05-10T03:48:31;27.00;;;15.13;;
23155;SDS011;11746;50.876;4.246;2023-05-10T03:50:57;28.10;;;16.65;;
23155;SDS011;11746;50.876;4.246;2023-05-10T03:53:24;28.05;;;15.30;;
23155;SDS011;11746;50.876;4.246;2023-05-10T03:55:50;24.50;;;15.40;;
23155;SDS011;11746;50.876;4.246;2023-05-10T03:58:16;26.08;;;15.98;;
23155;SDS011;11746;50.876;4.246;2023-05-10T04:00:42;27.67;;;16.58;;
23155;SDS011;11746;50.876;4.246;2023-05-10T04:03:11;30.70;;;16.58;;
23155;SDS011;11746;50.876;4.246;2023-05-10T04:05:37;26.63;;;16.02;;
23155;SDS011;11746;50.876;4.246;2023-05-10T04:08:03;24.15;;;15.45;;
23155;SDS011;11746;50.876;4.246;2023-05-10T04:10:30;23.40;;;14.98;;
23155;SDS011;11746;50.876;4.246;2023-05-10T04:12:56;23.85;;;15.75;;
23155;SDS011;11746;50.876;4.246;2023-05-10T04:15:22;26.98;;;17.08;;
23155;SDS011;11746;50.876;4.246;2023-05-10T04:17:48;26.92;;;16.08;;
23155;SDS011;11746;50.876;4.246;2023-05-10T04:20:15;28.30;;;15.68;;
23155;SDS011;11746;50.876;4.246;2023-05-10T04:22:41;28.02;;;16.23;;
23155;SDS011;11746;50.876;4.246;2023-05-10T04:25:07;26.42;;;16.35;;
23155;SDS011;11746;50.876;4.246;2023-05-10T04:27:33;27.83;;;16.80;;
23155;SDS011;11746;50.876;4.246;2023-05-10T04:29:59;27.92;;;16.33;;
23155;SDS011;11746;50.876;4.246;2023-05-10T04:32:25;28.20;;;17.05;;
23155;SDS011;11746;50.876;4.246;2023-05-10T04:34:51;26.48;;;16.25;;
23155;SDS011;11746;50.876;4.246;2023-05-10T04:37:18;28.33;;;17.65;;
23155;SDS011;11746;50.876;4.246;2023-05-10T04:39:44;29.55;;;17.50;;
23155;SDS011;11746;50.876;4.246;2023-05-10T04:42:10;31.15;;;18.77;;
23155;SDS011;11746;50.876;4.246;2023-05-10T04:44:36;28.65;;;18.88;;
23155;SDS011;11746;50.876;4.246;2023-05-10T04:47:02;32.92;;;19.02;;
23155;SDS011;11746;50.876;4.246;2023-05-10T04:49:29;29.02;;;17.55;;
23155;SDS011;11746;50.876;4.246;2023-05-10T04:51:55;29.08;;;18.80;;
23155;SDS011;11746;50.876;4.246;2023-05-10T04:54:21;34.15;;;19.35;;
23155;SDS011;11746;50.876;4.246;2023-05-10T04:56:47;29.92;;;18.95;;
23155;SDS011;11746;50.876;4.246;2023-05-10T04:59:13;28.58;;;18.25;;
23155;SDS011;11746;50.876;4.246;2023-05-10T05:01:39;29.20;;;18.75;;
23155;SDS011;11746;50.876;4.246;2023-05-10T05:04:05;27.55;;;17.60;;
23155;SDS011;11746;50.876;4.246;2023-05-10T05:06:31;29.20;;;17.98;;
23155;SDS011;11746;50.876;4.246;2023-05-10T05:08:57;27.40;;;18.00;;
23155;SDS011;11746;50.876;4.246;2023-05-10T05:11:23;29.77;;;18.20;;
23155;SDS011;11746;50.876;4.246;2023-05-10T05:13:51;26.98;;;18.02;;
23155;SDS011;11746;50.876;4.246;2023-05-10T05:16:17;28.50;;;18.33;;
23155;SDS011;11746;50.876;4.246;2023-05-10T05:18:43;26.80;;;17.70;;
23155;SDS011;11746;50.876;4.246;2023-05-10T05:21:18;21.77;;;13.98;;
23155;SDS011;11746;50.876;4.246;2023-05-10T05:23:44;21.63;;;14.27;;
23155;SDS011;11746;50.876;4.246;2023-05-10T05:26:10;17.02;;;12.18;;
23155;SDS011;11746;50.876;4.246;2023-05-10T05:28:36;22.02;;;12.73;;
23155;SDS011;11746;50.876;4.246;2023-05-10T05:31:03;20.85;;;11.77;;
23155;SDS011;11746;50.876;4.246;2023-05-10T05:33:30;17.83;;;11.90;;
23155;SDS011;11746;50.876;4.246;2023-05-10T05:35:56;19.90;;;12.00;;
23155;SDS011;11746;50.876;4.246;2023-05-10T05:38:22;19.55;;;12.57;;
23155;SDS011;11746;50.876;4.246;2023-05-10T05:40:48;19.65;;;12.48;;
23155;SDS011;11746;50.876;4.246;2023-05-10T05:43:14;20.70;;;12.63;;
23155;SDS011;11746;50.876;4.246;2023-05-10T05:45:40;21.48;;;12.82;;
23155;SDS011;11746;50.876;4.246;2023-05-10T05:48:06;24.40;;;14.30;;
23155;SDS011;11746;50.876;4.246;2023-05-10T05:50:32;23.45;;;13.75;;
23155;SDS011;11746;50.876;4.246;2023-05-10T05:52:58;25.55;;;14.02;;
23155;SDS011;11746;50.876;4.246;2023-05-10T05:55:24;23.52;;;13.52;;
23155;SDS011;11746;50.876;4.246;2023-05-10T05:57:51;21.85;;;13.90;;
23155;SDS011;11746;50.876;4.246;2023-05-10T06:00:17;26.40;;;15.00;;
23155;SDS011;11746;50.876;4.246;2023-05-10T06:02:43;23.00;;;14.45;;
23155;SDS011;11746;50.876;4.246;2023-05-10T06:05:09;25.55;;;14.77;;
23155;SDS011;11746;50.876;4.246;2023-05-10T06:07:34;25.90;;;14.60;;
23155;SDS011;11746;50.876;4.246;2023-05-10T06:10:01;26.85;;;15.93;;
23155;SDS011;11746;50.876;4.246;2023-05-10T06:12:28;25.48;;;15.52;;
23155;SDS011;11746;50.876;4.246;2023-05-10T06:14:53;28.73;;;16.20;;
23155;SDS011;11746;50.876;4.246;2023-05-10T06:17:19;30.70;;;17.15;;
23155;SDS011;11746;50.876;4.246;2023-05-10T06:19:46;28.20;;;16.30;;
23155;SDS011;11746;50.876;4.246;2023-05-10T06:22:12;30.05;;;16.00;;
23155;SDS011;11746;50.876;4.246;2023-05-10T06:24:38;29.67;;;16.25;;
23155;SDS011;11746;50.876;4.246;2023-05-10T06:27:04;29.35;;;17.02;;
23155;SDS011;11746;50.876;4.246;2023-05-10T06:29:30;35.25;;;17.17;;
23155;SDS011;11746;50.876;4.246;2023-05-10T06:31:56;27.17;;;16.83;;
23155;SDS011;11746;50.876;4.246;2023-05-10T06:34:22;30.73;;;17.55;;
23155;SDS011;11746;50.876;4.246;2023-05-10T06:36:48;35.85;;;18.67;;
23155;SDS011;11746;50.876;4.246;2023-05-10T06:39:14;30.58;;;17.58;;
23155;SDS011;11746;50.876;4.246;2023-05-10T06:41:40;33.67;;;18.08;;
23155;SDS011;11746;50.876;4.246;2023-05-10T06:44:09;34.55;;;17.77;;
23155;SDS011;11746;50.876;4.246;2023-05-10T06:46:34;32.97;;;17.23;;
23155;SDS011;11746;50.876;4.246;2023-05-10T06:49:01;34.88;;;17.58;;
23155;SDS011;11746;50.876;4.246;2023-05-10T06:51:27;33.67;;;17.60;;
23155;SDS011;11746;50.876;4.246;2023-05-10T06:53:53;37.95;;;18.02;;
23155;SDS011;11746;50.876;4.246;2023-05-10T06:56:19;37.08;;;17.80;;
23155;SDS011;11746;50.876;4.246;2023-05-10T06:58:46;31.92;;;18.40;;
23155;SDS011;11746;50.876;4.246;2023-05-10T07:01:15;35.47;;;18.10;;
23155;SDS011;11746;50.876;4.246;2023-05-10T07:03:41;33.35;;;17.67;;
23155;SDS011;11746;50.876;4.246;2023-05-10T07:06:07;35.08;;;17.38;;
23155;SDS011;11746;50.876;4.246;2023-05-10T07:08:33;28.20;;;15.60;;
23155;SDS011;11746;50.876;4.246;2023-05-10T07:11:03;26.77;;;15.05;;
23155;SDS011;11746;50.876;4.246;2023-05-10T07:13:32;29.23;;;13.43;;
23155;SDS011;11746;50.876;4.246;2023-05-10T07:15:58;26.50;;;14.25;;
23155;SDS011;11746;50.876;4.246;2023-05-10T07:18:25;28.30;;;13.52;;
23155;SDS011;11746;50.876;4.246;2023-05-10T07:20:51;31.45;;;13.90;;
23155;SDS011;11746;50.876;4.246;2023-05-10T07:23:17;24.92;;;14.18;;
23155;SDS011;11746;50.876;4.246;2023-05-10T07:25:45;26.38;;;13.35;;
23155;SDS011;11746;50.876;4.246;2023-05-10T07:28:12;20.67;;;11.77;;
23155;SDS011;11746;50.876;4.246;2023-05-10T07:30:39;20.60;;;12.40;;
23155;SDS011;11746;50.876;4.246;2023-05-10T07:33:05;24.08;;;12.10;;
23155;SDS011;11746;50.876;4.246;2023-05-10T07:35:32;21.30;;;11.93;;
23155;SDS011;11746;50.876;4.246;2023-05-10T07:37:58;22.73;;;10.82;;
23155;SDS011;11746;50.876;4.246;2023-05-10T07:40:23;22.42;;;10.75;;
23155;SDS011;11746;50.876;4.246;2023-05-10T07:42:49;20.92;;;11.13;;
23155;SDS011;11746;50.876;4.246;2023-05-10T07:45:15;15.68;;;9.23;;
23155;SDS011;11746;50.876;4.246;2023-05-10T07:47:41;19.60;;;9.98;;
23155;SDS011;11746;50.876;4.246;2023-05-10T07:50:07;16.80;;;9.43;;
23155;SDS011;11746;50.876;4.246;2023-05-10T07:52:33;20.35;;;9.55;;
23155;SDS011;11746;50.876;4.246;2023-05-10T07:54:59;22.30;;;10.30;;
23155;SDS011;11746;50.876;4.246;2023-05-10T07:57:25;17.48;;;10.50;;
23155;SDS011;11746;50.876;4.246;2023-05-10T07:59:51;18.95;;;10.07;;
23155;SDS011;11746;50.876;4.246;2023-05-10T08:02:17;20.13;;;10.27;;
23155;SDS011;11746;50.876;4.246;2023-05-10T08:04:43;19.50;;;10.10;;
23155;SDS011;11746;50.876;4.246;2023-05-10T08:07:09;16.42;;;9.38;;
23155;SDS011;11746;50.876;4.246;2023-05-10T08:09:35;15.43;;;9.70;;
23155;SDS011;11746;50.876;4.246;2023-05-10T08:12:01;16.92;;;9.05;;
23155;SDS011;11746;50.876;4.246;2023-05-10T08:14:29;16.80;;;9.20;;
23155;SDS011;11746;50.876;4.246;2023-05-10T08:16:55;13.65;;;7.95;;
23155;SDS011;11746;50.876;4.246;2023-05-10T08:19:21;14.75;;;8.68;;
23155;SDS011;11746;50.876;4.246;2023-05-10T08:21:48;16.30;;;7.70;;
23155;SDS011;11746;50.876;4.246;2023-05-10T08:24:13;13.98;;;7.70;;
23155;SDS011;11746;50.876;4.246;2023-05-10T08:26:39;17.63;;;8.85;;
23155;SDS011;11746;50.876;4.246;2023-05-10T08:29:05;13.48;;;7.47;;
23155;SDS011;11746;50.876;4.246;2023-05-10T08:31:31;12.35;;;6.97;;
23155;SDS011;11746;50.876;4.246;2023-05-10T08:33:57;14.60;;;8.25;;
23155;SDS011;11746;50.876;4.246;2023-05-10T08:36:23;11.70;;;7.75;;
23155;SDS011;11746;50.876;4.246;2023-05-10T08:38:53;11.80;;;7.50;;
23155;SDS011;11746;50.876;4.246;2023-05-10T08:41:20;14.93;;;7.97;;
23155;SDS011;11746;50.876;4.246;2023-05-10T08:43:47;11.10;;;7.18;;
23155;SDS011;11746;50.876;4.246;2023-05-10T08:46:17;12.25;;;8.15;;
23155;SDS011;11746;50.876;4.246;2023-05-10T08:48:44;12.55;;;8.40;;
23155;SDS011;11746;50.876;4.246;2023-05-10T08:51:16;12.20;;;7.72;;
23155;SDS011;11746;50.876;4.246;2023-05-10T08:53:43;12.05;;;8.02;;
23155;SDS011;11746;50.876;4.246;2023-05-10T08:56:10;12.50;;;8.02;;
23155;SDS011;11746;50.876;4.246;2023-05-10T08:58:37;13.25;;;8.13;;
23155;SDS011;11746;50.876;4.246;2023-05-10T09:01:03;11.35;;;7.88;;
23155;SDS011;11746;50.876;4.246;2023-05-10T09:03:30;14.10;;;7.80;;
23155;SDS011;11746;50.876;4.246;2023-05-10T09:05:57;15.13;;;7.72;;
23155;SDS011;11746;50.876;4.246;2023-05-10T09:08:24;12.20;;;7.82;;
23155;SDS011;11746;50.876;4.246;2023-05-10T09:10:54;11.93;;;7.75;;
23155;SDS011;11746;50.876;4.246;2023-05-10T09:13:21;13.55;;;8.15;;
23155;SDS011;11746;50.876;4.246;2023-05-10T09:15:48;15.73;;;8.20;;
23155;SDS011;11746;50.876;4.246;2023-05-10T09:18:14;11.65;;;7.78;;
23155;SDS011;11746;50.876;4.246;2023-05-10T09:20:40;11.48;;;7.53;;
23155;SDS011;11746;50.876;4.246;2023-05-10T09:23:07;13.30;;;8.60;;
23155;SDS011;11746;50.876;4.246;2023-05-10T09:25:33;12.23;;;7.78;;
23155;SDS011;11746;50.876;4.246;2023-05-10T09:28:00;13.55;;;8.27;;
23155;SDS011;11746;50.876;4.246;2023-05-10T09:30:26;11.63;;;7.47;;
23155;SDS011;11746;50.876;4.246;2023-05-10T09:32:56;12.43;;;8.02;;
23155;SDS011;11746;50.876;4.246;2023-05-10T09:35:25;10.43;;;7.30;;
23155;SDS011;11746;50.876;4.246;2023-05-10T09:37:54;13.00;;;8.00;;
23155;SDS011;11746;50.876;4.246;2023-05-10T09:40:28;13.10;;;7.57;;
23155;SDS011;11746;50.876;4.246;2023-05-10T09:42:59;11.25;;;7.47;;
23155;SDS011;11746;50.876;4.246;2023-05-10T09:45:27;11.02;;;7.55;;
23155;SDS011;11746;50.876;4.246;2023-05-10T09:47:55;12.32;;;7.07;;
23155;SDS011;11746;50.876;4.246;2023-05-10T09:50:22;13.73;;;7.40;;
23155;SDS011;11746;50.876;4.246;2023-05-10T09:52:58;10.65;;;7.68;;
23155;SDS011;11746;50.876;4.246;2023-05-10T09:55:40;10.75;;;7.65;;
23155;SDS011;11746;50.876;4.246;2023-05-10T09:58:11;12.75;;;7.68;;
23155;SDS011;11746;50.876;4.246;2023-05-10T10:00:42;12.93;;;7.20;;
23155;SDS011;11746;50.876;4.246;2023-05-10T10:03:13;10.45;;;7.53;;
23155;SDS011;11746;50.876;4.246;2023-05-10T10:08:10;12.90;;;7.97;;
23155;SDS011;11746;50.876;4.246;2023-05-10T10:10:37;11.85;;;7.45;;
23155;SDS011;11746;50.876;4.246;2023-05-10T10:13:07;10.80;;;7.35;;
23155;SDS011;11746;50.876;4.246;2023-05-10T10:15:33;13.30;;;6.75;;
23155;SDS011;11746;50.876;4.246;2023-05-10T10:18:00;9.15;;;6.65;;
23155;SDS011;11746;50.876;4.246;2023-05-10T10:20:28;9.63;;;7.05;;
23155;SDS011;11746;50.876;4.246;2023-05-10T10:22:54;10.43;;;6.72;;
23155;SDS011;11746;50.876;4.246;2023-05-10T10:25:21;9.05;;;6.90;;
23155;SDS011;11746;50.876;4.246;2023-05-10T10:35:29;9.18;;;6.75;;
23155;SDS011;11746;50.876;4.246;2023-05-10T10:37:56;9.30;;;6.20;;
23155;SDS011;11746;50.876;4.246;2023-05-10T10:40:25;8.30;;;6.10;;
23155;SDS011;11746;50.876;4.246;2023-05-10T10:42:52;10.50;;;6.32;;
23155;SDS011;11746;50.876;4.246;2023-05-10T10:45:19;9.10;;;6.25;;
23155;SDS011;11746;50.876;4.246;2023-05-10T10:47:46;9.25;;;6.43;;
23155;SDS011;11746;50.876;4.246;2023-05-10T10:50:12;12.02;;;7.00;;
23155;SDS011;11746;50.876;4.246;2023-05-10T10:52:39;9.60;;;6.53;;
23155;SDS011;11746;50.876;4.246;2023-05-10T10:55:06;8.68;;;6.80;;
23155;SDS011;11746;50.876;4.246;2023-05-10T11:08:13;11.02;;;8.00;;
23155;SDS011;11746;50.876;4.246;2023-05-10T11:10:51;11.45;;;8.13;;
23155;SDS011;11746;50.876;4.246;2023-05-10T11:13:29;13.07;;;8.27;;
23155;SDS011;11746;50.876;4.246;2023-05-10T11:15:58;12.50;;;8.50;;
23155;SDS011;11746;50.876;4.246;2023-05-10T11:18:36;11.93;;;8.65;;
23155;SDS011;11746;50.876;4.246;2023-05-10T11:21:03;13.38;;;8.85;;
23155;SDS011;11746;50.876;4.246;2023-05-10T11:26:07;13.93;;;9.18;;
23155;SDS011;11746;50.876;4.246;2023-05-10T11:28:46;12.60;;;8.32;;
23155;SDS011;11746;50.876;4.246;2023-05-10T11:31:13;12.48;;;8.88;;
23155;SDS011;11746;50.876;4.246;2023-05-10T11:33:44;11.70;;;8.52;;
23155;SDS011;11746;50.876;4.246;2023-05-10T11:36:11;11.90;;;8.80;;
23155;SDS011;11746;50.876;4.246;2023-05-10T11:38:39;12.23;;;7.95;;
23155;SDS011;11746;50.876;4.246;2023-05-10T11:41:07;11.75;;;8.40;;
23155;SDS011;11746;50.876;4.246;2023-05-10T11:43:35;13.95;;;8.90;;
23155;SDS011;11746;50.876;4.246;2023-05-10T11:46:04;12.77;;;9.05;;
23155;SDS011;11746;50.876;4.246;2023-05-10T11:48:39;11.98;;;8.80;;
23155;SDS011;11746;50.876;4.246;2023-05-10T11:51:08;11.13;;;8.65;;
23155;SDS011;11746;50.876;4.246;2023-05-10T11:53:36;12.20;;;8.95;;
23155;SDS011;11746;50.876;4.246;2023-05-10T11:56:06;13.63;;;8.82;;
23155;SDS011;11746;50.876;4.246;2023-05-10T11:58:36;11.73;;;8.95;;
23155;SDS011;11746;50.876;4.246;2023-05-10T12:01:03;12.80;;;9.45;;
23155;SDS011;11746;50.876;4.246;2023-05-10T12:03:32;15.70;;;8.85;;
23155;SDS011;11746;50.876;4.246;2023-05-10T12:05:58;12.20;;;8.93;;
23155;SDS011;11746;50.876;4.246;2023-05-10T12:08:30;13.43;;;8.10;;
23155;SDS011;11746;50.876;4.246;2023-05-10T12:11:08;12.90;;;8.05;;
23155;SDS011;11746;50.876;4.246;2023-05-10T12:13:39;11.45;;;7.82;;
23155;SDS011;11746;50.876;4.246;2023-05-10T12:16:18;11.30;;;7.70;;
23155;SDS011;11746;50.876;4.246;2023-05-10T12:18:48;13.93;;;8.73;;
23155;SDS011;11746;50.876;4.246;2023-05-10T12:21:16;10.05;;;8.23;;
23155;SDS011;11746;50.876;4.246;2023-05-10T12:23:42;11.88;;;8.70;;
23155;SDS011;11746;50.876;4.246;2023-05-10T12:26:11;12.35;;;8.80;;
23155;SDS011;11746;50.876;4.246;2023-05-10T12:28:37;11.75;;;8.25;;
23155;SDS011;11746;50.876;4.246;2023-05-10T12:31:05;11.05;;;8.18;;
23155;SDS011;11746;50.876;4.246;2023-05-10T12:33:41;12.18;;;8.10;;
23155;SDS011;11746;50.876;4.246;2023-05-10T12:36:09;11.20;;;8.07;;
23155;SDS011;11746;50.876;4.246;2023-05-10T12:38:36;10.82;;;8.00;;
23155;SDS011;11746;50.876;4.246;2023-05-10T12:41:06;11.20;;;8.32;;
23155;SDS011;11746;50.876;4.246;2023-05-10T12:43:34;11.50;;;8.52;;
23155;SDS011;11746;50.876;4.246;2023-05-10T12:46:13;11.43;;;7.95;;
23155;SDS011;11746;50.876;4.246;2023-05-10T12:48:40;10.90;;;7.88;;
23155;SDS011;11746;50.876;4.246;2023-05-10T12:51:07;10.15;;;7.70;;
23155;SDS011;11746;50.876;4.246;2023-05-10T12:53:37;9.45;;;7.55;;
23155;SDS011;11746;50.876;4.246;2023-05-10T12:56:03;10.02;;;7.45;;
23155;SDS011;11746;50.876;4.246;2023-05-10T12:58:29;9.43;;;7.43;;
23155;SDS011;11746;50.876;4.246;2023-05-10T13:00:57;12.10;;;8.00;;
23155;SDS011;11746;50.876;4.246;2023-05-10T13:03:26;11.60;;;7.80;;
23155;SDS011;11746;50.876;4.246;2023-05-10T13:05:51;11.35;;;7.80;;
23155;SDS011;11746;50.876;4.246;2023-05-10T13:08:17;11.30;;;7.43;;
23155;SDS011;11746;50.876;4.246;2023-05-10T13:10:45;14.65;;;8.45;;
23155;SDS011;11746;50.876;4.246;2023-05-10T13:13:10;10.85;;;8.07;;
23155;SDS011;11746;50.876;4.246;2023-05-10T13:15:39;11.27;;;7.60;;
23155;SDS011;11746;50.876;4.246;2023-05-10T13:18:04;9.90;;;7.72;;
23155;SDS011;11746;50.876;4.246;2023-05-10T13:20:30;11.13;;;7.82;;
23155;SDS011;11746;50.876;4.246;2023-05-10T13:22:56;11.57;;;7.63;;
23155;SDS011;11746;50.876;4.246;2023-05-10T13:25:23;15.05;;;7.88;;
23155;SDS011;11746;50.876;4.246;2023-05-10T13:27:49;12.02;;;7.88;;
23155;SDS011;11746;50.876;4.246;2023-05-10T13:30:15;10.10;;;7.30;;
23155;SDS011;11746;50.876;4.246;2023-05-10T13:32:41;11.32;;;8.30;;
23155;SDS011;11746;50.876;4.246;2023-05-10T13:35:07;11.60;;;8.73;;
23155;SDS011;11746;50.876;4.246;2023-05-10T13:37:33;13.40;;;9.13;;
23155;SDS011;11746;50.876;4.246;2023-05-10T13:40:03;10.80;;;9.10;;
23155;SDS011;11746;50.876;4.246;2023-05-10T13:42:29;11.65;;;9.13;;
23155;SDS011;11746;50.876;4.246;2023-05-10T13:44:56;10.98;;;8.85;;
23155;SDS011;11746;50.876;4.246;2023-05-10T13:47:22;10.98;;;8.65;;
23155;SDS011;11746;50.876;4.246;2023-05-10T13:49:48;11.15;;;8.82;;
23155;SDS011;11746;50.876;4.246;2023-05-10T13:52:14;12.40;;;9.23;;
23155;SDS011;11746;50.876;4.246;2023-05-10T13:54:40;13.30;;;9.45;;
23155;SDS011;11746;50.876;4.246;2023-05-10T13:57:06;11.55;;;9.75;;
23155;SDS011;11746;50.876;4.246;2023-05-10T13:59:32;11.95;;;9.65;;
23155;SDS011;11746;50.876;4.246;2023-05-10T14:01:58;12.95;;;9.77;;
23155;SDS011;11746;50.876;4.246;2023-05-10T14:04:25;11.82;;;9.32;;
23155;SDS011;11746;50.876;4.246;2023-05-10T14:06:51;13.23;;;9.43;;
23155;SDS011;11746;50.876;4.246;2023-05-10T14:09:18;14.68;;;9.93;;
23155;SDS011;11746;50.876;4.246;2023-05-10T14:11:44;12.38;;;9.80;;
23155;SDS011;11746;50.876;4.246;2023-05-10T14:14:10;13.05;;;9.95;;
23155;SDS011;11746;50.876;4.246;2023-05-10T14:16:37;13.00;;;9.88;;
23155;SDS011;11746;50.876;4.246;2023-05-10T14:19:03;14.15;;;10.00;;
23155;SDS011;11746;50.876;4.246;2023-05-10T14:21:29;16.73;;;10.13;;
23155;SDS011;11746;50.876;4.246;2023-05-10T14:23:55;14.98;;;10.07;;
23155;SDS011;11746;50.876;4.246;2023-05-10T14:26:22;16.30;;;9.52;;
23155;SDS011;11746;50.876;4.246;2023-05-10T14:28:48;15.27;;;10.23;;
23155;SDS011;11746;50.876;4.246;2023-05-10T14:31:14;13.45;;;10.00;;
23155;SDS011;11746;50.876;4.246;2023-05-10T14:33:41;13.50;;;9.80;;
23155;SDS011;11746;50.876;4.246;2023-05-10T14:36:08;15.00;;;10.18;;
23155;SDS011;11746;50.876;4.246;2023-05-10T14:38:34;14.88;;;9.73;;
23155;SDS011;11746;50.876;4.246;2023-05-10T14:41:00;11.30;;;9.02;;
23155;SDS011;11746;50.876;4.246;2023-05-10T14:43:26;14.25;;;10.65;;
23155;SDS011;11746;50.876;4.246;2023-05-10T14:45:52;13.02;;;9.98;;
23155;SDS011;11746;50.876;4.246;2023-05-10T14:48:18;15.18;;;10.55;;
23155;SDS011;11746;50.876;4.246;2023-05-10T14:50:46;12.73;;;9.60;;
23155;SDS011;11746;50.876;4.246;2023-05-10T14:53:12;13.70;;;8.95;;
23155;SDS011;11746;50.876;4.246;2023-05-10T14:55:38;9.75;;;6.90;;
23155;SDS011;11746;50.876;4.246;2023-05-10T14:58:04;8.95;;;5.47;;
23155;SDS011;11746;50.876;4.246;2023-05-10T15:00:30;8.73;;;3.95;;
23155;SDS011;11746;50.876;4.246;2023-05-10T15:02:56;6.75;;;3.42;;
23155;SDS011;11746;50.876;4.246;2023-05-10T15:05:22;6.65;;;3.28;;
23155;SDS011;11746;50.876;4.246;2023-05-10T15:07:48;9.48;;;3.67;;
23155;SDS011;11746;50.876;4.246;2023-05-10T15:10:14;7.50;;;3.42;;
23155;SDS011;11746;50.876;4.246;2023-05-10T15:12:40;10.57;;;3.65;;
23155;SDS011;11746;50.876;4.246;2023-05-10T15:15:07;7.32;;;4.05;;
23155;SDS011;11746;50.876;4.246;2023-05-10T15:17:33;6.85;;;4.00;;